createdAt,value
2018-07-28T00:00:14.185Z,26.55
2018-07-28T00:01:14.195Z,26.48
2018-07-28T00:02:14.200Z,26.47
2018-07-28T00:03:14.208Z,26.44
2018-07-28T00:04:14.216Z,26.44
2018-07-28T00:05:14.228Z,26.40
2018-07-28T00:06:14.232Z,26.37
2018-07-28T00:07:14.241Z,26.40
2018-07-28T00:08:14.248Z,26.34
2018-07-28T00:09:14.256Z,26.43
2018-07-28T00:10:14.266Z,26.37
2018-07-28T00:11:14.272Z,26.29
2018-07-28T00:12:14.280Z,26.38
2018-07-28T00:13:14.287Z,26.36
2018-07-28T00:14:14.297Z,26.33
2018-07-28T00:15:14.302Z,26.38
2018-07-28T00:16:14.311Z,26.37
2018-07-28T00:17:14.320Z,26.34
2018-07-28T00:18:14.328Z,26.38
2018-07-28T00:19:14.337Z,26.25
2018-07-28T00:20:14.345Z,26.36
2018-07-28T00:21:14.352Z,26.22
2018-07-28T00:22:14.359Z,26.37
2018-07-28T00:23:14.367Z,26.33
2018-07-28T00:24:14.374Z,26.33
2018-07-28T00:25:14.383Z,26.21
2018-07-28T00:26:14.391Z,26.26
2018-07-28T00:27:14.398Z,26.21
2018-07-28T00:28:14.405Z,26.23
2018-07-28T00:29:14.414Z,26.25
2018-07-28T00:30:14.423Z,26.19
2018-07-28T00:31:14.433Z,26.15
2018-07-28T00:32:14.437Z,26.18
2018-07-28T00:33:14.444Z,26.18
2018-07-28T00:34:14.455Z,26.07
2018-07-28T00:35:14.462Z,26.15
2018-07-28T00:36:14.469Z,26.09
2018-07-28T00:37:14.477Z,26.18
2018-07-28T00:38:14.484Z,26.09
2018-07-28T00:39:14.493Z,26.10
2018-07-28T00:40:14.500Z,26.07
2018-07-28T00:41:14.513Z,26.03
2018-07-28T00:42:14.515Z,26.05
2018-07-28T00:43:14.523Z,26.06
2018-07-28T00:44:14.531Z,26.00
2018-07-28T00:45:14.537Z,25.96
2018-07-28T00:46:14.547Z,25.96
2018-07-28T00:47:14.556Z,25.85
2018-07-28T00:48:14.561Z,25.93
2018-07-28T00:49:14.570Z,25.84
2018-07-28T00:50:14.577Z,25.90
2018-07-28T00:51:14.585Z,25.87
2018-07-28T00:52:14.593Z,25.87
2018-07-28T00:53:14.600Z,25.84
2018-07-28T00:54:14.641Z,25.88
2018-07-28T00:55:14.617Z,25.95
2018-07-28T00:56:14.623Z,25.84
2018-07-28T00:57:14.631Z,25.91
2018-07-28T00:58:14.640Z,25.87
2018-07-28T00:59:14.649Z,25.78
2018-07-28T01:00:14.654Z,25.80
2018-07-28T01:01:14.661Z,25.80
2018-07-28T01:02:14.669Z,25.87
2018-07-28T01:03:14.677Z,25.88
2018-07-28T01:04:14.683Z,25.88
2018-07-28T01:05:14.692Z,25.85
2018-07-28T01:06:14.699Z,25.90
2018-07-28T01:07:14.706Z,25.90
2018-07-28T01:08:14.716Z,25.91
2018-07-28T01:09:14.723Z,25.85
2018-07-28T01:10:14.733Z,25.90
2018-07-28T01:11:14.737Z,25.81
2018-07-28T01:12:14.743Z,25.90
2018-07-28T01:13:14.752Z,25.84
2018-07-28T01:14:14.760Z,25.87
2018-07-28T01:15:14.767Z,25.88
2018-07-28T01:16:14.774Z,25.87
2018-07-28T01:17:14.781Z,25.84
2018-07-28T01:18:14.789Z,25.77
2018-07-28T01:19:14.798Z,25.75
2018-07-28T01:20:14.804Z,25.77
2018-07-28T01:21:14.814Z,25.70
2018-07-28T01:22:14.818Z,25.72
2018-07-28T01:23:14.827Z,25.75
2018-07-28T01:24:14.834Z,25.77
2018-07-28T01:25:14.842Z,25.59
2018-07-28T01:26:14.850Z,25.59
2018-07-28T01:27:14.857Z,25.62
2018-07-28T01:28:14.866Z,25.55
2018-07-28T01:29:14.872Z,25.59
2018-07-28T01:30:14.880Z,25.55
2018-07-28T01:31:14.887Z,25.54
2018-07-28T01:32:14.892Z,25.43
2018-07-28T01:33:14.901Z,25.50
2018-07-28T01:34:14.910Z,25.46
2018-07-28T01:35:14.916Z,25.50
2018-07-28T01:36:14.923Z,25.46
2018-07-28T01:37:14.932Z,25.47
2018-07-28T01:38:14.938Z,25.41
2018-07-28T01:39:14.945Z,25.47
2018-07-28T01:40:14.953Z,25.46
2018-07-28T01:41:14.960Z,25.44
2018-07-28T01:42:14.967Z,25.48
2018-07-28T01:43:14.975Z,25.44
2018-07-28T01:44:14.984Z,25.46
2018-07-28T01:45:14.989Z,25.41
2018-07-28T01:46:14.996Z,25.41
2018-07-28T01:47:15.004Z,25.43
2018-07-28T01:48:15.011Z,25.40
2018-07-28T01:49:15.023Z,25.36
2018-07-28T01:50:15.027Z,25.43
2018-07-28T01:51:15.034Z,25.47
2018-07-28T01:52:15.041Z,25.46
2018-07-28T01:53:15.050Z,25.48
2018-07-28T01:54:15.056Z,25.46
2018-07-28T01:55:15.064Z,25.41
2018-07-28T01:56:15.069Z,25.40
2018-07-28T01:57:15.076Z,25.29
2018-07-28T01:58:15.085Z,25.26
2018-07-28T01:59:15.090Z,25.23
2018-07-28T02:00:15.097Z,25.21
2018-07-28T02:01:15.105Z,25.13
2018-07-28T02:02:15.113Z,25.17
2018-07-28T02:03:15.125Z,25.16
2018-07-28T02:04:15.125Z,25.10
2018-07-28T02:05:15.133Z,25.13
2018-07-28T02:06:15.141Z,25.06
2018-07-28T02:07:15.147Z,25.01
2018-07-28T02:08:15.154Z,25.03
2018-07-28T02:09:15.160Z,24.95
2018-07-28T02:10:15.168Z,24.91
2018-07-28T02:11:15.174Z,24.84
2018-07-28T02:12:15.182Z,24.78
2018-07-28T02:13:15.190Z,24.76
2018-07-28T02:14:15.197Z,24.63
2018-07-28T02:15:15.206Z,24.66
2018-07-28T02:16:15.213Z,24.65
2018-07-28T02:17:15.218Z,24.68
2018-07-28T02:18:15.225Z,24.78
2018-07-28T02:19:15.236Z,24.76
2018-07-28T02:20:15.240Z,24.76
2018-07-28T02:21:15.245Z,24.74
2018-07-28T02:22:15.252Z,24.74
2018-07-28T02:23:15.259Z,24.68
2018-07-28T02:24:15.266Z,24.58
2018-07-28T02:25:15.274Z,24.54
2018-07-28T02:26:15.279Z,24.70
2018-07-28T02:27:15.289Z,24.68
2018-07-28T02:28:15.294Z,24.68
2018-07-28T02:29:15.301Z,24.69
2018-07-28T02:30:15.308Z,24.66
2018-07-28T02:31:15.316Z,24.69
2018-07-28T02:32:15.322Z,24.68
2018-07-28T02:33:15.330Z,24.70
2018-07-28T02:34:15.337Z,24.55
2018-07-28T02:35:15.344Z,24.57
2018-07-28T02:36:15.357Z,24.42
2018-07-28T02:37:15.362Z,24.42
2018-07-28T02:38:15.365Z,24.39
2018-07-28T02:39:15.371Z,24.45
2018-07-28T02:40:15.377Z,24.45
2018-07-28T02:41:15.384Z,24.48
2018-07-28T02:42:15.392Z,24.57
2018-07-28T02:43:15.399Z,24.57
2018-07-28T02:44:15.405Z,24.54
2018-07-28T02:45:15.412Z,24.51
2018-07-28T02:46:15.418Z,24.45
2018-07-28T02:47:15.425Z,24.47
2018-07-28T02:48:15.433Z,24.26
2018-07-28T02:49:15.440Z,24.26
2018-07-28T02:50:15.448Z,24.16
2018-07-28T02:51:15.456Z,24.13
2018-07-28T02:52:15.459Z,24.08
2018-07-28T02:53:15.466Z,23.98
2018-07-28T02:54:15.474Z,23.98
2018-07-28T02:55:15.480Z,23.87
2018-07-28T02:56:15.486Z,23.91
2018-07-28T02:57:15.493Z,23.91
2018-07-28T02:58:15.500Z,23.81
2018-07-28T02:59:15.507Z,23.78
2018-07-28T03:00:15.534Z,23.84
2018-07-28T03:01:15.521Z,23.81
2018-07-28T03:02:15.527Z,23.84
2018-07-28T03:03:15.534Z,23.81
2018-07-28T03:04:15.541Z,23.78
2018-07-28T03:05:15.548Z,23.69
2018-07-28T03:06:15.555Z,23.71
2018-07-28T03:07:15.561Z,23.73
2018-07-28T03:08:15.567Z,23.76
2018-07-28T03:09:15.574Z,23.68
2018-07-28T03:10:15.580Z,23.71
2018-07-28T03:11:15.588Z,23.66
2018-07-28T03:12:15.593Z,23.76
2018-07-28T03:13:15.601Z,23.74
2018-07-28T03:14:15.605Z,23.73
2018-07-28T03:15:15.613Z,23.63
2018-07-28T03:16:15.620Z,23.65
2018-07-28T03:17:15.627Z,23.66
2018-07-28T03:18:15.633Z,23.65
2018-07-28T03:19:15.645Z,23.61
2018-07-28T03:20:15.646Z,23.61
2018-07-28T03:21:15.655Z,23.63
2018-07-28T03:22:15.659Z,23.62
2018-07-28T03:23:15.668Z,23.68
2018-07-28T03:24:15.675Z,23.71
2018-07-28T03:25:15.678Z,23.61
2018-07-28T03:26:15.686Z,23.68
2018-07-28T03:27:15.692Z,23.65
2018-07-28T03:28:15.697Z,23.65
2018-07-28T03:29:15.704Z,23.68
2018-07-28T03:30:15.710Z,23.74
2018-07-28T03:31:15.719Z,23.65
2018-07-28T03:32:15.722Z,23.63
2018-07-28T03:33:15.729Z,23.71
2018-07-28T03:34:15.738Z,23.65
2018-07-28T03:35:15.744Z,23.62
2018-07-28T03:36:15.748Z,23.66
2018-07-28T03:37:15.755Z,23.69
2018-07-28T03:38:15.762Z,23.58
2018-07-28T03:39:15.770Z,23.56
2018-07-28T03:40:15.774Z,23.59
2018-07-28T03:41:15.782Z,23.56
2018-07-28T03:42:15.788Z,23.48
2018-07-28T03:43:15.794Z,23.48
2018-07-28T03:44:15.800Z,23.50
2018-07-28T03:45:15.806Z,23.51
2018-07-28T03:46:15.814Z,23.59
2018-07-28T03:47:15.820Z,23.56
2018-07-28T03:48:15.825Z,23.51
2018-07-28T03:49:15.888Z,23.48
2018-07-28T03:50:15.839Z,23.41
2018-07-28T03:51:15.846Z,23.40
2018-07-28T03:52:15.851Z,23.27
2018-07-28T03:53:15.857Z,23.24
2018-07-28T03:54:15.863Z,23.34
2018-07-28T03:55:15.877Z,23.40
2018-07-28T03:56:15.875Z,23.41
2018-07-28T03:57:15.881Z,23.32
2018-07-28T03:58:15.888Z,23.40
2018-07-28T03:59:15.895Z,23.40
2018-07-28T04:00:15.903Z,23.40
2018-07-28T04:01:15.907Z,23.40
2018-07-28T04:02:15.914Z,23.40
2018-07-28T04:03:15.920Z,23.39
2018-07-28T04:04:15.954Z,23.39
2018-07-28T04:05:15.933Z,23.37
2018-07-28T04:06:15.947Z,23.39
2018-07-28T04:07:15.944Z,23.32
2018-07-28T04:08:15.957Z,23.43
2018-07-28T04:09:15.962Z,23.34
2018-07-28T04:10:16.010Z,23.28
2018-07-28T04:11:15.968Z,23.37
2018-07-28T04:12:15.975Z,23.44
2018-07-28T04:13:15.980Z,23.58
2018-07-28T04:14:16.038Z,23.68
2018-07-28T04:15:15.993Z,23.65
2018-07-28T04:16:16.000Z,23.66
2018-07-28T04:17:16.006Z,23.58
2018-07-28T04:18:16.014Z,23.54
2018-07-28T04:19:16.017Z,23.61
2018-07-28T04:20:16.025Z,23.51
2018-07-28T04:21:16.029Z,23.37
2018-07-28T04:22:16.035Z,23.37
2018-07-28T04:23:16.041Z,23.39
2018-07-28T04:24:16.046Z,23.40
2018-07-28T04:25:16.053Z,23.28
2018-07-28T04:26:16.062Z,23.28
2018-07-28T04:27:16.065Z,23.06
2018-07-28T04:28:16.072Z,23.05
2018-07-28T04:29:16.078Z,23.08
2018-07-28T04:30:16.082Z,23.05
2018-07-28T04:31:16.088Z,23.09
2018-07-28T04:32:16.093Z,23.09
2018-07-28T04:33:16.099Z,23.12
2018-07-28T04:34:16.105Z,23.08
2018-07-28T04:35:16.112Z,23.09
2018-07-28T04:36:16.118Z,23.12
2018-07-28T04:37:16.122Z,23.03
2018-07-28T04:38:16.128Z,23.13
2018-07-28T04:39:16.135Z,23.09
2018-07-28T04:40:16.140Z,23.09
2018-07-28T04:41:16.146Z,23.10
2018-07-28T04:42:16.153Z,23.08
2018-07-28T04:43:16.158Z,23.18
2018-07-28T04:44:16.164Z,23.23
2018-07-28T04:45:16.169Z,23.23
2018-07-28T04:46:16.175Z,23.09
2018-07-28T04:47:16.182Z,23.08
2018-07-28T04:48:16.188Z,23.13
2018-07-28T04:49:16.193Z,23.17
2018-07-28T04:50:16.198Z,23.05
2018-07-28T04:51:16.206Z,23.03
2018-07-28T04:52:16.211Z,23.05
2018-07-28T04:53:16.216Z,23.06
2018-07-28T04:54:16.223Z,23.06
2018-07-28T04:55:16.228Z,23.13
2018-07-28T04:56:16.234Z,23.05
2018-07-28T04:57:16.239Z,23.03
2018-07-28T04:58:16.246Z,23.10
2018-07-28T04:59:16.253Z,23.13
2018-07-28T05:00:16.258Z,23.23
2018-07-28T05:01:16.268Z,23.20
2018-07-28T05:02:16.270Z,23.21
2018-07-28T05:03:16.276Z,23.23
2018-07-28T05:04:16.281Z,23.24
2018-07-28T05:05:16.291Z,23.31
2018-07-28T05:06:16.293Z,23.34
2018-07-28T05:07:16.356Z,23.25
2018-07-28T05:08:16.305Z,23.28
2018-07-28T05:09:16.311Z,23.24
2018-07-28T05:10:16.319Z,23.09
2018-07-28T05:11:16.324Z,23.18
2018-07-28T05:12:16.329Z,23.21
2018-07-28T05:13:16.336Z,23.27
2018-07-28T05:14:16.343Z,23.27
2018-07-28T05:15:16.350Z,23.39
2018-07-28T05:16:16.353Z,23.41
2018-07-28T05:17:16.361Z,23.41
2018-07-28T05:18:16.367Z,23.47
2018-07-28T05:19:16.372Z,23.48
2018-07-28T05:20:16.378Z,23.59
2018-07-28T05:21:16.387Z,23.68
2018-07-28T05:22:16.392Z,23.68
2018-07-28T05:23:16.397Z,23.66
2018-07-28T05:24:16.403Z,23.76
2018-07-28T05:25:16.408Z,23.80
2018-07-28T05:26:16.415Z,23.91
2018-07-28T05:27:16.423Z,23.96
2018-07-28T05:28:16.426Z,24.06
2018-07-28T05:29:16.432Z,24.17
2018-07-28T05:30:16.440Z,24.13
2018-07-28T05:31:16.446Z,24.05
2018-07-28T05:32:16.454Z,23.98
2018-07-28T05:33:16.459Z,23.98
2018-07-28T05:34:16.465Z,24.03
2018-07-28T05:35:16.472Z,23.98
2018-07-28T05:36:16.477Z,24.05
2018-07-28T05:37:16.495Z,24.20
2018-07-28T05:38:16.491Z,24.28
2018-07-28T05:39:16.497Z,24.39
2018-07-28T05:40:16.505Z,24.39
2018-07-28T05:41:16.519Z,24.54
2018-07-28T05:42:16.518Z,24.54
2018-07-28T05:43:16.523Z,24.48
2018-07-28T05:44:16.529Z,24.57
2018-07-28T05:45:16.535Z,24.57
2018-07-28T05:46:16.540Z,24.54
2018-07-28T05:47:16.548Z,24.48
2018-07-28T05:48:16.554Z,24.42
2018-07-28T05:49:16.561Z,24.45
2018-07-28T05:50:16.567Z,24.53
2018-07-28T05:51:16.574Z,24.45
2018-07-28T05:52:16.580Z,24.57
2018-07-28T05:53:16.586Z,24.55
2018-07-28T05:54:16.593Z,24.57
2018-07-28T05:55:16.605Z,24.61
2018-07-28T05:56:16.606Z,24.58
2018-07-28T05:57:16.613Z,24.66
2018-07-28T05:58:16.621Z,24.66
2018-07-28T05:59:16.630Z,24.68
2018-07-28T06:00:16.636Z,24.77
2018-07-28T06:01:16.639Z,24.81
2018-07-28T06:02:16.660Z,24.74
2018-07-28T06:03:16.653Z,24.70
2018-07-28T06:04:16.659Z,24.91
2018-07-28T06:05:16.667Z,24.88
2018-07-28T06:06:16.676Z,24.88
2018-07-28T06:07:16.682Z,24.91
2018-07-28T06:08:16.686Z,24.95
2018-07-28T06:09:16.694Z,25.06
2018-07-28T06:10:16.703Z,25.11
2018-07-28T06:11:16.707Z,24.99
2018-07-28T06:12:16.714Z,25.06
2018-07-28T06:13:16.720Z,24.99
2018-07-28T06:14:16.780Z,25.17
2018-07-28T06:15:16.734Z,25.11
2018-07-28T06:16:16.740Z,25.18
2018-07-28T06:17:16.748Z,25.28
2018-07-28T06:18:16.758Z,25.29
2018-07-28T06:19:16.762Z,25.36
2018-07-28T06:20:16.801Z,25.43
2018-07-28T06:21:16.778Z,25.38
2018-07-28T06:22:16.783Z,25.29
2018-07-28T06:23:16.789Z,25.36
2018-07-28T06:24:16.796Z,25.43
2018-07-28T06:25:16.804Z,25.31
2018-07-28T06:26:16.814Z,25.32
2018-07-28T06:27:16.818Z,25.40
2018-07-28T06:28:16.827Z,25.43
2018-07-28T06:29:16.830Z,25.44
2018-07-28T06:30:16.840Z,25.47
2018-07-28T06:31:16.855Z,25.46
2018-07-28T06:32:16.854Z,25.62
2018-07-28T06:33:16.860Z,25.55
2018-07-28T06:34:16.869Z,25.70
2018-07-28T06:35:16.876Z,25.66
2018-07-28T06:36:16.882Z,25.60
2018-07-28T06:37:16.890Z,25.62
2018-07-28T06:38:16.897Z,25.58
2018-07-28T06:39:16.905Z,25.59
2018-07-28T06:40:16.912Z,25.65
2018-07-28T06:41:16.923Z,25.77
2018-07-28T06:42:16.926Z,25.77
2018-07-28T06:43:16.933Z,25.83
2018-07-28T06:44:16.940Z,25.84
2018-07-28T06:45:16.948Z,25.91
2018-07-28T06:46:16.954Z,25.93
2018-07-28T06:47:16.992Z,25.80
2018-07-28T06:48:16.969Z,25.90
2018-07-28T06:49:16.976Z,25.85
2018-07-28T06:50:16.986Z,25.93
2018-07-28T06:51:16.992Z,25.98
2018-07-28T06:52:17.000Z,26.06
2018-07-28T06:53:17.006Z,26.02
2018-07-28T06:54:17.014Z,25.95
2018-07-28T06:55:17.023Z,25.93
2018-07-28T06:56:17.031Z,25.95
2018-07-28T06:57:17.037Z,25.95
2018-07-28T06:58:17.044Z,25.87
2018-07-28T06:59:17.052Z,26.03
2018-07-28T07:00:17.060Z,26.00
2018-07-28T07:01:17.067Z,25.90
2018-07-28T07:02:17.074Z,25.96
2018-07-28T07:03:17.081Z,26.02
2018-07-28T07:04:17.095Z,26.06
2018-07-28T07:05:17.097Z,26.15
2018-07-28T07:06:17.104Z,26.05
2018-07-28T07:07:17.112Z,25.96
2018-07-28T07:08:17.119Z,25.96
2018-07-28T07:09:17.127Z,25.96
2018-07-28T07:10:17.139Z,25.99
2018-07-28T07:11:17.145Z,26.05
2018-07-28T07:12:17.150Z,26.07
2018-07-28T07:13:17.158Z,26.13
2018-07-28T07:14:17.168Z,26.03
2018-07-28T07:15:17.175Z,26.07
2018-07-28T07:16:17.181Z,26.25
2018-07-28T07:17:17.189Z,26.31
2018-07-28T07:18:17.198Z,26.37
2018-07-28T07:19:17.205Z,26.47
2018-07-28T07:20:17.213Z,26.51
2018-07-28T07:21:17.220Z,26.66
2018-07-28T07:22:17.228Z,26.78
2018-07-28T07:23:17.237Z,26.90
2018-07-28T07:24:17.245Z,26.75
2018-07-28T07:25:17.252Z,26.66
2018-07-28T07:26:17.262Z,26.77
2018-07-28T07:27:17.270Z,26.92
2018-07-28T07:28:17.277Z,26.80
2018-07-28T07:29:17.289Z,26.81
2018-07-28T07:30:17.300Z,26.80
2018-07-28T07:31:17.303Z,27.05
2018-07-28T07:32:17.310Z,26.95
2018-07-28T07:33:17.318Z,27.07
2018-07-28T07:34:17.328Z,27.17
2018-07-28T07:35:17.336Z,27.11
2018-07-28T07:36:17.388Z,27.18
2018-07-28T07:37:17.354Z,27.33
2018-07-28T07:38:17.361Z,27.45
2018-07-28T07:39:17.372Z,27.47
2018-07-28T07:40:17.379Z,27.51
2018-07-28T07:41:17.389Z,27.52
2018-07-28T07:42:17.396Z,27.35
2018-07-28T07:43:17.405Z,27.21
2018-07-28T07:44:17.413Z,27.14
2018-07-28T07:45:17.423Z,27.33
2018-07-28T07:46:17.433Z,27.18
2018-07-28T07:47:17.477Z,26.99
2018-07-28T07:48:17.448Z,26.75
2018-07-28T07:49:17.459Z,26.59
2018-07-28T07:50:17.469Z,26.71
2018-07-28T07:51:17.476Z,26.81
2018-07-28T07:52:17.484Z,26.89
2018-07-28T07:53:17.494Z,26.95
2018-07-28T07:54:17.504Z,27.00
2018-07-28T07:55:17.513Z,26.92
2018-07-28T07:56:17.541Z,26.77
2018-07-28T07:57:17.529Z,26.83
2018-07-28T07:58:17.539Z,27.07
2018-07-28T07:59:17.549Z,27.05
2018-07-28T08:00:17.559Z,26.96
2018-07-28T08:01:17.565Z,26.93
2018-07-28T08:02:17.574Z,26.77
2018-07-28T08:03:17.584Z,26.78
2018-07-28T08:04:17.591Z,26.65
2018-07-28T08:05:17.609Z,26.68
2018-07-28T08:06:17.616Z,26.77
2018-07-28T08:07:17.619Z,26.66
2018-07-28T08:08:17.629Z,26.59
2018-07-28T08:09:17.638Z,26.65
2018-07-28T08:10:17.646Z,26.56
2018-07-28T08:11:17.655Z,26.60
2018-07-28T08:12:17.663Z,26.51
2018-07-28T08:13:17.673Z,26.34
2018-07-28T08:14:17.681Z,26.31
2018-07-28T08:15:17.690Z,26.36
2018-07-28T08:16:17.699Z,26.37
2018-07-28T08:17:17.707Z,26.44
2018-07-28T08:18:17.715Z,26.47
2018-07-28T08:19:17.726Z,26.53
2018-07-28T08:20:17.735Z,26.56
2018-07-28T08:21:17.742Z,26.52
2018-07-28T08:22:17.750Z,26.38
2018-07-28T08:23:17.761Z,26.43
2018-07-28T08:24:17.767Z,26.34
2018-07-28T08:25:17.775Z,26.26
2018-07-28T08:26:17.784Z,26.31
2018-07-28T08:27:17.792Z,26.34
2018-07-28T08:28:17.800Z,26.38
2018-07-28T08:29:17.811Z,26.23
2018-07-28T08:30:17.818Z,25.98
2018-07-28T08:31:17.827Z,25.90
2018-07-28T08:32:17.834Z,25.78
2018-07-28T08:33:17.896Z,25.87
2018-07-28T08:34:17.852Z,25.66
2018-07-28T08:35:17.859Z,25.77
2018-07-28T08:36:17.868Z,25.68
2018-07-28T08:37:17.880Z,25.73
2018-07-28T08:38:17.885Z,25.80
2018-07-28T08:39:17.892Z,25.81
2018-07-28T08:40:17.900Z,25.80
2018-07-28T08:41:17.908Z,25.70
2018-07-28T08:42:17.916Z,25.54
2018-07-28T08:43:17.925Z,25.72
2018-07-28T08:44:17.933Z,25.68
2018-07-28T08:45:17.940Z,25.80
2018-07-28T08:46:17.950Z,25.96
2018-07-28T08:47:17.957Z,25.96
2018-07-28T08:48:17.966Z,26.05
2018-07-28T08:49:18.058Z,26.15
2018-07-28T08:50:17.982Z,26.25
2018-07-28T08:51:17.988Z,26.19
2018-07-28T08:52:17.996Z,26.23
2018-07-28T08:53:18.006Z,26.33
2018-07-28T08:54:18.014Z,26.43
2018-07-28T08:55:18.022Z,26.55
2018-07-28T08:56:18.031Z,26.60
2018-07-28T08:57:18.040Z,26.66
2018-07-28T08:58:18.046Z,26.52
2018-07-28T08:59:18.055Z,26.53
2018-07-28T09:00:18.062Z,26.62
2018-07-28T09:01:18.071Z,26.60
2018-07-28T09:02:18.080Z,26.58
2018-07-28T09:03:18.088Z,26.51
2018-07-28T09:04:18.096Z,26.60
2018-07-28T09:05:18.105Z,26.58
2018-07-28T09:06:18.113Z,26.62
2018-07-28T09:07:18.123Z,26.65
2018-07-28T09:08:18.130Z,26.56
2018-07-28T09:09:18.138Z,26.58
2018-07-28T09:10:18.148Z,26.53
2018-07-28T09:11:18.156Z,26.44
2018-07-28T09:12:18.223Z,26.45
2018-07-28T09:13:18.174Z,26.43
2018-07-28T09:14:18.185Z,26.51
2018-07-28T09:15:18.191Z,26.51
2018-07-28T09:16:18.230Z,26.40
2018-07-28T09:17:18.208Z,26.33
2018-07-28T09:18:18.216Z,26.33
2018-07-28T09:19:18.223Z,26.25
2018-07-28T09:20:18.234Z,26.07
2018-07-28T09:21:18.242Z,26.07
2018-07-28T09:22:18.250Z,26.09
2018-07-28T09:23:18.306Z,26.10
2018-07-28T09:24:18.268Z,26.06
2018-07-28T09:25:18.275Z,26.13
2018-07-28T09:26:18.284Z,26.23
2018-07-28T09:27:18.293Z,26.23
2018-07-28T09:28:18.301Z,26.29
2018-07-28T09:29:18.310Z,26.38
2018-07-28T09:30:18.319Z,26.53
2018-07-28T09:31:18.328Z,26.52
2018-07-28T09:32:18.340Z,26.78
2018-07-28T09:33:18.345Z,26.77
2018-07-28T09:34:18.353Z,26.96
2018-07-28T09:35:18.361Z,26.97
2018-07-28T09:36:18.370Z,26.93
2018-07-28T09:37:18.379Z,26.90
2018-07-28T09:38:18.388Z,26.97
2018-07-28T09:39:18.397Z,26.92
2018-07-28T09:40:18.404Z,26.96
2018-07-28T09:41:18.412Z,26.70
2018-07-28T09:42:18.423Z,26.58
2018-07-28T09:43:18.432Z,26.37
2018-07-28T09:44:18.440Z,26.28
2018-07-28T09:45:18.449Z,26.15
2018-07-28T09:46:18.500Z,26.21
2018-07-28T09:47:18.466Z,26.26
2018-07-28T09:48:18.473Z,26.29
2018-07-28T09:49:18.482Z,26.21
2018-07-28T09:50:18.491Z,26.23
2018-07-28T09:51:18.502Z,26.28
2018-07-28T09:52:18.509Z,26.22
2018-07-28T09:53:18.518Z,26.15
2018-07-28T09:54:18.527Z,26.29
2018-07-28T09:55:18.535Z,26.51
2018-07-28T09:56:18.587Z,26.47
2018-07-28T09:57:18.552Z,26.52
2018-07-28T09:58:18.560Z,26.47
2018-07-28T09:59:18.569Z,26.22
2018-07-28T10:00:18.580Z,26.05
2018-07-28T10:01:18.589Z,26.18
2018-07-28T10:02:18.595Z,26.15
2018-07-28T10:03:18.604Z,26.10
2018-07-28T10:04:18.614Z,26.09
2018-07-28T10:05:18.620Z,25.91
2018-07-28T10:06:18.630Z,25.98
2018-07-28T10:07:18.638Z,26.00
2018-07-28T10:08:18.646Z,25.95
2018-07-28T10:09:18.654Z,25.91
2018-07-28T10:10:18.665Z,26.16
2018-07-28T10:11:18.674Z,25.84
2018-07-28T10:12:18.680Z,25.91
2018-07-28T10:13:18.689Z,25.88
2018-07-28T10:14:18.699Z,25.90
2018-07-28T10:15:18.707Z,25.73
2018-07-28T10:16:18.799Z,25.72
2018-07-28T10:17:18.723Z,25.55
2018-07-28T10:18:18.731Z,25.63
2018-07-28T10:19:18.740Z,25.65
2018-07-28T10:20:18.748Z,25.47
2018-07-28T10:21:18.757Z,25.17
2018-07-28T10:22:18.766Z,25.11
2018-07-28T10:23:18.774Z,25.06
2018-07-28T10:24:18.782Z,25.14
2018-07-28T10:25:18.789Z,25.07
2018-07-28T10:26:18.797Z,24.99
2018-07-28T10:27:18.805Z,25.03
2018-07-28T10:28:18.813Z,25.03
2018-07-28T10:29:18.821Z,25.10
2018-07-28T10:30:18.904Z,25.06
2018-07-28T10:31:18.837Z,24.96
2018-07-28T10:32:18.845Z,25.10
2018-07-28T10:33:18.853Z,24.91
2018-07-28T10:34:18.862Z,24.95
2018-07-28T10:35:18.870Z,24.92
2018-07-28T10:36:18.912Z,25.07
2018-07-28T10:37:18.885Z,25.16
2018-07-28T10:38:18.893Z,25.14
2018-07-28T10:39:18.901Z,25.16
2018-07-28T10:40:18.908Z,25.17
2018-07-28T10:41:18.915Z,25.31
2018-07-28T10:42:18.925Z,25.44
2018-07-28T10:43:18.932Z,25.53
2018-07-28T10:44:18.939Z,25.63
2018-07-28T10:45:18.947Z,25.84
2018-07-28T10:46:18.956Z,26.06
2018-07-28T10:47:18.966Z,26.15
2018-07-28T10:48:18.971Z,26.37
2018-07-28T10:49:18.980Z,26.43
2018-07-28T10:50:18.989Z,26.55
2018-07-28T10:51:18.996Z,26.68
2018-07-28T10:52:19.004Z,26.81
2018-07-28T10:53:19.012Z,26.84
2018-07-28T10:54:19.022Z,26.47
2018-07-28T10:55:19.029Z,26.40
2018-07-28T10:56:19.038Z,26.37
2018-07-28T10:57:19.046Z,26.40
2018-07-28T10:58:19.055Z,26.41
2018-07-28T10:59:19.066Z,26.59
2018-07-28T11:00:19.131Z,26.59
2018-07-28T11:01:19.081Z,26.48
2018-07-28T11:02:19.091Z,26.43
2018-07-28T11:03:19.099Z,26.40
2018-07-28T11:04:19.106Z,26.65
2018-07-28T11:05:19.115Z,26.63
2018-07-28T11:06:19.126Z,26.75
2018-07-28T11:07:19.133Z,26.88
2018-07-28T11:08:19.142Z,26.88
2018-07-28T11:09:19.150Z,26.97
2018-07-28T11:10:19.160Z,27.10
2018-07-28T11:11:19.170Z,26.96
2018-07-28T11:12:19.178Z,27.17
2018-07-28T11:13:19.188Z,27.08
2018-07-28T11:14:19.195Z,27.20
2018-07-28T11:15:19.204Z,27.29
2018-07-28T11:16:19.213Z,27.47
2018-07-28T11:17:19.225Z,27.37
2018-07-28T11:18:19.232Z,27.36
2018-07-28T11:19:19.241Z,27.52
2018-07-28T11:20:19.251Z,27.47
2018-07-28T11:21:19.259Z,27.48
2018-07-28T11:22:19.270Z,27.63
2018-07-28T11:23:19.280Z,27.60
2018-07-28T11:24:19.288Z,27.67
2018-07-28T11:25:19.298Z,27.74
2018-07-28T11:26:19.340Z,27.80
2018-07-28T11:27:19.316Z,27.77
2018-07-28T11:28:19.325Z,27.75
2018-07-28T11:29:19.336Z,27.65
2018-07-28T11:30:19.346Z,27.60
2018-07-28T11:31:19.356Z,27.60
2018-07-28T11:32:19.366Z,27.65
2018-07-28T11:33:19.423Z,27.70
2018-07-28T11:34:19.384Z,27.59
2018-07-28T11:35:19.397Z,27.73
2018-07-28T11:36:19.402Z,27.68
2018-07-28T11:37:19.412Z,27.83
2018-07-28T11:38:19.423Z,27.95
2018-07-28T11:39:19.432Z,28.17
2018-07-28T11:40:19.441Z,28.33
2018-07-28T11:41:19.451Z,28.17
2018-07-28T11:42:19.460Z,28.17
2018-07-28T11:43:19.472Z,28.20
2018-07-28T11:44:19.481Z,28.26
2018-07-28T11:45:19.491Z,28.22
2018-07-28T11:46:19.501Z,28.14
2018-07-28T11:47:19.515Z,27.90
2018-07-28T11:48:19.522Z,27.87
2018-07-28T11:49:19.530Z,27.74
2018-07-28T11:50:19.540Z,27.70
2018-07-28T11:51:19.565Z,27.75
2018-07-28T11:52:19.562Z,27.86
2018-07-28T11:53:19.576Z,27.68
2018-07-28T11:54:19.581Z,27.59
2018-07-28T11:55:19.596Z,27.78
2018-07-28T11:56:19.602Z,27.68
2018-07-28T11:57:19.611Z,27.64
2018-07-28T11:58:19.657Z,27.68
2018-07-28T11:59:19.634Z,27.68
2018-07-28T12:00:19.641Z,27.68
2018-07-28T12:01:19.652Z,27.89
2018-07-28T12:02:19.661Z,27.80
2018-07-28T12:03:19.671Z,27.98
2018-07-28T12:04:19.681Z,27.95
2018-07-28T12:05:19.691Z,27.80
2018-07-28T12:06:19.702Z,27.96
2018-07-28T12:07:19.710Z,28.11
2018-07-28T12:08:19.725Z,28.37
2018-07-28T12:09:19.730Z,28.54
2018-07-28T12:10:19.741Z,28.70
2018-07-28T12:11:19.750Z,28.84
2018-07-28T12:12:19.759Z,28.79
2018-07-28T12:13:19.770Z,28.84
2018-07-28T12:14:19.780Z,29.07
2018-07-28T12:15:19.791Z,28.93
2018-07-28T12:16:19.799Z,28.88
2018-07-28T12:17:19.811Z,28.85
2018-07-28T12:18:19.866Z,28.88
2018-07-28T12:19:19.832Z,28.88
2018-07-28T12:20:19.842Z,28.76
2018-07-28T12:21:19.851Z,28.63
2018-07-28T12:22:19.890Z,28.59
2018-07-28T12:23:19.873Z,28.64
2018-07-28T12:24:19.882Z,28.60
2018-07-28T12:25:19.892Z,28.56
2018-07-28T12:26:19.904Z,28.51
2018-07-28T12:27:19.913Z,28.78
2018-07-28T12:28:19.923Z,28.86
2018-07-28T12:29:19.933Z,28.98
2018-07-28T12:30:19.945Z,29.04
2018-07-28T12:31:19.956Z,29.01
2018-07-28T12:32:19.965Z,28.79
2018-07-28T12:33:19.976Z,28.91
2018-07-28T12:34:19.985Z,28.98
2018-07-28T12:35:19.998Z,28.94
2018-07-28T12:36:20.007Z,28.91
2018-07-28T12:37:20.017Z,28.94
2018-07-28T12:38:20.030Z,29.27
2018-07-28T12:39:20.038Z,29.13
2018-07-28T12:40:20.049Z,29.20
2018-07-28T12:41:20.059Z,29.32
2018-07-28T12:42:20.069Z,29.27
2018-07-28T12:43:20.081Z,29.44
2018-07-28T12:44:20.090Z,29.65
2018-07-28T12:45:20.102Z,29.78
2018-07-28T12:46:20.112Z,29.71
2018-07-28T12:47:20.122Z,29.49
2018-07-28T12:48:20.132Z,29.26
2018-07-28T12:49:20.147Z,29.22
2018-07-28T12:50:20.154Z,29.16
2018-07-28T12:51:20.169Z,29.31
2018-07-28T12:52:20.174Z,29.59